KCEZ/CEZ METAR and TAF weather

Enter ICAO airport designator
Station Type Date Time Source
KCEZ METAR 2022/11/26 07:53 UTC NOAA

KCEZ 260753Z AUTO 08007KT 10SM CLR M07/M13 A3019 RMK AO2 SLP228 T10721128


Station Type Date Time Source
KCEZ Decoded METAR 2022/11/26 07:53 UTC NOAA

CORTEZ MONTEZUMA COUNTY AIRPORT , CO, United States (KCEZ) 37-18N 108-38W 1797M
Nov 26, 2022 - 02:53 AM EST / 2022.11.26 0753 UTC
Wind: from the E (080 degrees) at 8 MPH (7 KT):0
Visibility: 10 mile(s):0
Sky conditions: clear
Temperature: 19.0 F (-7.2 C)
Windchill: 8 F (-13 C):1
Dew Point: 9.0 F (-12.8 C)
Relative Humidity: 64%
Pressure (altimeter): 30.19 in. Hg (1022 hPa)
ob: KCEZ 260753Z AUTO 08007KT 10SM CLR M07/M13 A3019 RMK AO2 SLP228 T10721128
cycle: 8

Station Type Date Time Source
KCEZ TAF UTC NOAA

Error!

Example: see airport list